Time;durP1;ratioP1;P1;durP2;ratioP2;P2;SDS_P1;SDS_P2;PMS_P1;PMS_P2;Temp;Humidity;BMP_temperature;BMP_pressure;BME280_temperature;BME280_humidity;BME280_pressure;Samples;Min_cycle;Max_cycle;Signal;HPM_P1;HPM_P2
2021/01/17 11:03:53;;;;;;;18.88;13.30;;;;;;;9.82;42.39;100729.63;5110328;27;20394;-73
2021/01/17 11:06:22;;;;;;;18.05;12.77;;;;;;;8.04;45.68;100718.03;5092244;28;20028;-73
2021/01/17 11:08:55;;;;;;;21.25;14.88;;;;;;;6.54;49.25;100723.31;5093057;28;20497;-72
2021/01/17 11:11:22;;;;;;;23.73;15.10;;;;;;;5.53;52.94;100728.41;5089373;28;20403;-72
2021/01/17 11:13:59;;;;;;;26.83;18.02;;;;;;;4.76;54.38;100722.66;5078231;28;20028;-72
2021/01/17 11:16:41;;;;;;;19.15;12.55;;;;;;;3.99;56.72;100718.38;5075213;28;20028;-72
2021/01/17 11:19:10;;;;;;;22.33;14.15;;;;;;;3.83;56.71;100725.59;5077241;28;20034;-72
2021/01/17 11:21:35;;;;;;;18.10;11.40;;;;;;;3.58;56.92;100729.84;5065718;28;20035;-72
2021/01/17 11:24:02;;;;;;;20.13;11.85;;;;;;;3.39;60.55;100732.84;5075512;28;20036;-72
2021/01/17 11:26:27;;;;;;;23.63;14.75;;;;;;;3.23;58.85;100739.19;5073910;28;20060;-72
2021/01/17 11:28:58;;;;;;;22.17;12.68;;;;;;;3.02;58.99;100731.78;5071439;28;20097;-73
2021/01/17 11:31:24;;;;;;;23.35;13.60;;;;;;;2.92;59.48;100725.47;5054417;28;20045;-72
2021/01/17 11:33:50;;;;;;;21.65;12.90;;;;;;;2.87;60.37;100735.38;5049392;28;20518;-72
2021/01/17 11:36:17;;;;;;;28.77;16.20;;;;;;;2.86;61.28;100733.69;5044119;28;20106;-72
2021/01/17 11:38:50;;;;;;;22.75;14.13;;;;;;;2.58;64.12;100738.03;5047088;28;20471;-72
2021/01/17 11:41:18;;;;;;;26.42;14.20;;;;;;;2.52;62.19;100738.41;5052774;28;20045;-72
2021/01/17 11:43:45;;;;;;;20.77;12.18;;;;;;;2.38;64.85;100738.41;5046321;28;20163;-72
2021/01/17 11:46:12;;;;;;;24.15;13.35;;;;;;;2.33;63.81;100741.31;5046758;28;20525;-72
2021/01/17 11:48:39;;;;;;;24.73;13.02;;;;;;;2.29;63.45;100750.28;5047268;28;20037;-72
2021/01/17 11:51:05;;;;;;;16.10;9.70;;;;;;;2.19;64.69;100749.13;5046889;28;20531;-72
2021/01/17 11:53:32;;;;;;;21.13;11.80;;;;;;;2.24;63.37;100741.84;5045958;28;20029;-72
2021/01/17 11:55:57;;;;;;;21.92;12.48;;;;;;;2.27;64.51;100746.91;5050542;28;20072;-72
2021/01/17 11:58:26;;;;;;;20.13;12.00;;;;;;;2.25;65.24;100754.00;5046064;28;20535;-72
2021/01/17 12:01:00;;;;;;;12.82;8.00;;;;;;;2.18;67.32;100742.25;5045904;28;20094;-72
2021/01/17 12:03:31;;;;;;;24.13;14.00;;;;;;;2.19;65.34;100746.50;5045909;28;20124;-72
2021/01/17 12:06:16;;;;;;;13.80;8.20;;;;;;;2.11;70.51;100744.38;5045568;28;20060;-72
2021/01/17 12:08:48;;;;;;;18.45;10.05;;;;;;;2.07;69.65;100741.13;5039797;28;20044;-72
2021/01/17 12:11:34;;;;;;;16.27;9.50;;;;;;;1.95;71.74;100744.44;5045426;28;20083;-72
2021/01/17 12:14:00;;;;;;;12.65;7.40;;;;;;;2.09;71.65;100751.44;5038278;28;20035;-72
2021/01/17 12:16:29;;;;;;;20.20;11.60;;;;;;;2.20;67.39;100750.81;4992530;28;20076;-72
2021/01/17 12:18:54;;;;;;;23.17;12.43;;;;;;;2.32;65.86;100745.69;4985742;28;82344;-72
2021/01/17 12:21:21;;;;;;;23.95;12.95;;;;;;;2.34;65.78;100756.88;4983300;28;20446;-72
2021/01/17 12:23:47;;;;;;;22.45;13.48;;;;;;;2.27;65.88;100741.69;4983887;28;20069;-72
2021/01/17 12:26:12;;;;;;;27.98;14.90;;;;;;;2.16;67.78;100744.94;4973732;28;20059;-72
2021/01/17 12:28:37;;;;;;;23.13;12.50;;;;;;;2.06;67.93;100739.44;4985308;28;20117;-72
2021/01/17 12:31:14;;;;;;;13.15;7.68;;;;;;;2.03;67.35;100744.00;4973540;28;20038;-72
2021/01/17 12:33:40;;;;;;;22.90;13.23;;;;;;;2.13;66.85;100747.75;4975831;28;20451;-72
2021/01/17 12:36:10;;;;;;;27.25;14.32;;;;;;;2.05;67.24;100744.72;4976505;28;20041;-72
2021/01/17 12:38:35;;;;;;;24.98;14.30;;;;;;;1.95;67.52;100734.00;4975913;28;20582;-72
2021/01/17 12:41:01;;;;;;;21.00;12.55;;;;;;;1.87;68.48;100731.88;4977073;28;20027;-72
2021/01/17 12:43:27;;;;;;;22.15;14.15;;;;;;;1.69;72.97;100733.81;4981693;28;20015;-72
2021/01/17 12:45:52;;;;;;;22.90;13.48;;;;;;;1.68;70.89;100744.31;4972149;28;20034;-71
2021/01/17 12:48:17;;;;;;;23.80;13.10;;;;;;;1.78;69.64;100739.38;4974612;28;20026;-72
2021/01/17 12:50:43;;;;;;;27.30;15.80;;;;;;;1.89;69.08;100742.22;4976084;28;20045;-72
2021/01/17 12:53:08;;;;;;;24.02;14.43;;;;;;;1.74;73.14;100737.88;4976454;28;20105;-72
2021/01/17 12:55:34;;;;;;;20.42;11.80;;;;;;;1.80;69.74;100738.38;4972775;28;20472;-72
2021/01/17 12:57:59;;;;;;;24.08;14.10;;;;;;;1.90;69.13;100731.66;4973342;28;20029;-71
2021/01/17 13:00:25;;;;;;;22.65;13.63;;;;;;;1.94;69.34;100742.78;4970483;28;20034;-72
2021/01/17 13:02:50;;;;;;;25.90;14.27;;;;;;;1.83;71.17;100743.41;4973069;28;20019;-72
2021/01/17 13:05:15;;;;;;;16.98;10.25;;;;;;;1.85;71.87;100741.53;4971443;28;20062;-72
2021/01/17 13:07:41;;;;;;;24.70;13.95;;;;;;;1.99;69.13;100751.16;4972670;28;20461;-72
2021/01/17 13:10:07;;;;;;;27.33;15.43;;;;;;;2.03;69.36;100746.63;4977556;28;20022;-72
2021/01/17 13:12:32;;;;;;;33.00;18.70;;;;;;;2.02;69.27;100753.56;4973496;28;20075;-72
2021/01/17 13:14:57;;;;;;;30.37;15.90;;;;;;;2.01;69.37;100749.31;4973259;28;20027;-72
2021/01/17 13:17:22;;;;;;;29.48;16.67;;;;;;;2.00;69.43;100739.81;4972829;28;20620;-72
2021/01/17 13:19:48;;;;;;;27.33;15.38;;;;;;;1.91;70.23;100753.41;4973736;28;20033;-72
2021/01/17 13:22:13;;;;;;;28.20;16.60;;;;;;;1.93;69.73;100743.69;4971444;28;20042;-72
2021/01/17 13:24:38;;;;;;;26.98;14.32;;;;;;;1.85;70.96;100746.75;4972809;28;20026;-72
2021/01/17 13:27:04;;;;;;;27.48;15.57;;;;;;;1.78;70.66;100755.88;4972110;28;20031;-72
2021/01/17 13:29:29;;;;;;;26.10;15.15;;;;;;;1.81;70.35;100760.06;4973287;28;20030;-72
2021/01/17 13:32:00;;;;;;;21.67;12.55;;;;;;;1.54;75.81;100755.53;4971032;28;20035;-72
2021/01/17 13:34:26;;;;;;;21.75;12.77;;;;;;;1.62;74.17;100760.28;4972701;28;20046;-72
2021/01/17 13:36:52;;;;;;;22.73;12.50;;;;;;;1.59;73.17;100766.53;4972794;28;20026;-72
2021/01/17 13:39:17;;;;;;;32.75;17.48;;;;;;;1.73;71.91;100773.56;4972531;28;20085;-72
2021/01/17 13:41:49;;;;;;;31.88;17.50;;;;;;;1.74;72.26;100777.00;4971095;28;20041;-72
2021/01/17 13:44:14;;;;;;;22.90;13.88;;;;;;;1.60;74.68;100773.44;4972572;28;20023;-72
2021/01/17 13:46:40;;;;;;;25.75;15.02;;;;;;;1.63;72.67;100775.03;4973212;28;20049;-73
2021/01/17 13:49:05;;;;;;;32.80;17.70;;;;;;;1.72;72.43;100777.09;4975750;28;20023;-72
2021/01/17 13:51:31;;;;;;;29.02;15.70;;;;;;;1.66;72.80;100772.22;4964992;28;20330;-72
2021/01/17 13:53:56;;;;;;;28.48;15.95;;;;;;;1.65;72.83;100778.38;4972138;28;20031;-72
2021/01/17 13:56:21;;;;;;;23.00;12.43;;;;;;;1.60;76.07;100790.84;4970591;28;20026;-72
2021/01/17 13:58:46;;;;;;;23.25;14.05;;;;;;;1.39;77.42;100795.50;4972863;28;20041;-72
2021/01/17 14:01:12;;;;;;;24.35;14.15;;;;;;;1.56;74.12;100794.53;4971722;28;20031;-72
2021/01/17 14:03:37;;;;;;;19.60;11.90;;;;;;;1.58;73.48;100795.28;4971872;28;20045;-72
2021/01/17 14:06:02;;;;;;;17.45;10.82;;;;;;;1.55;75.14;100795.44;4972357;28;20038;-72
2021/01/17 14:08:28;;;;;;;31.15;17.55;;;;;;;1.51;73.99;100799.19;4972132;28;20073;-72
2021/01/17 14:10:53;;;;;;;25.90;15.20;;;;;;;1.47;74.14;100807.16;4978669;28;20026;-72
2021/01/17 14:13:19;;;;;;;26.27;15.30;;;;;;;1.44;73.71;100817.75;4973721;28;20019;-72
2021/01/17 14:15:45;;;;;;;27.40;15.55;;;;;;;1.39;73.99;100816.34;4977939;28;20045;-72
2021/01/17 14:18:10;;;;;;;22.70;13.48;;;;;;;1.34;74.85;100824.41;4972517;28;20270;-72
2021/01/17 14:20:35;;;;;;;21.30;12.38;;;;;;;1.35;74.60;100815.66;4974260;28;20027;-72
2021/01/17 14:23:00;;;;;;;29.02;15.48;;;;;;;1.41;74.01;100825.75;4971852;28;20019;-72
2021/01/17 14:25:26;;;;;;;20.65;13.10;;;;;;;1.38;74.14;100823.31;4971926;28;20081;-72
2021/01/17 14:27:51;;;;;;;23.98;13.50;;;;;;;1.35;74.37;100835.66;4971960;28;20366;-72
2021/01/17 14:30:17;;;;;;;26.23;15.57;;;;;;;1.36;74.76;100842.53;4971044;28;20019;-72
2021/01/17 14:32:43;;;;;;;27.70;14.55;;;;;;;1.29;75.30;100842.06;4973717;28;20070;-73
2021/01/17 14:35:09;;;;;;;26.67;15.70;;;;;;;1.35;74.38;100846.09;4974661;28;20077;-71
2021/01/17 14:37:35;;;;;;;22.25;13.00;;;;;;;1.33;74.15;100846.16;4971542;28;20014;-71
2021/01/17 14:40:01;;;;;;;24.17;13.60;;;;;;;1.30;74.61;100851.56;4971816;28;20027;-73
2021/01/17 14:42:26;;;;;;;24.15;13.75;;;;;;;1.31;74.70;100853.25;4971752;28;20019;-73
2021/01/17 14:44:51;;;;;;;19.65;11.68;;;;;;;1.30;74.82;100867.19;4971748;28;20035;-73
2021/01/17 14:47:17;;;;;;;22.05;13.48;;;;;;;1.26;74.95;100863.91;4974577;28;20036;-71
2021/01/17 14:49:42;;;;;;;29.02;16.38;;;;;;;1.25;75.63;100882.22;4971947;28;20097;-73
2021/01/17 14:52:08;;;;;;;28.90;15.77;;;;;;;1.29;75.11;100873.34;4971347;28;20019;-73
2021/01/17 14:54:34;;;;;;;25.85;14.85;;;;;;;1.19;76.12;100875.59;4971327;28;20050;-73
2021/01/17 14:56:59;;;;;;;30.10;16.45;;;;;;;1.22;75.73;100878.03;4971408;28;20038;-73
2021/01/17 14:59:28;;;;;;;22.02;12.90;;;;;;;1.16;77.41;100883.56;4971449;28;20034;-73
2021/01/17 15:01:58;;;;;;;32.90;17.77;;;;;;;1.13;76.61;100883.72;4970620;28;20069;-71
2021/01/17 15:04:24;;;;;;;28.52;16.23;;;;;;;1.19;76.32;100880.81;4970037;28;20042;-71
2021/01/17 15:06:50;;;;;;;27.17;16.35;;;;;;;1.18;76.99;100892.13;4971170;28;20035;-73
2021/01/17 15:09:15;;;;;;;25.15;15.07;;;;;;;1.21;75.98;100886.75;4971752;28;20026;-73
2021/01/17 15:11:41;;;;;;;23.58;13.98;;;;;;;1.21;76.28;100901.53;4977321;28;20031;-73
2021/01/17 15:14:06;;;;;;;23.35;12.88;;;;;;;1.17;76.41;100911.31;4970983;28;20361;-73
2021/01/17 15:16:31;;;;;;;27.75;15.60;;;;;;;1.19;76.43;100912.06;4974657;28;20049;-73
2021/01/17 15:18:57;;;;;;;15.95;9.18;;;;;;;1.12;78.08;100908.09;4975624;28;20392;-73
2021/01/17 15:21:24;;;;;;;27.45;15.00;;;;;;;1.20;76.27;100916.34;4970901;28;20074;-73
2021/01/17 15:23:50;;;;;;;24.38;15.00;;;;;;;1.22;76.75;100924.09;4977824;28;20031;-72
2021/01/17 15:26:17;;;;;;;29.98;16.60;;;;;;;1.23;76.58;100931.78;4971244;28;20040;-73
2021/01/17 15:28:42;;;;;;;32.22;18.20;;;;;;;1.21;76.70;100927.59;4971144;28;20027;-73
2021/01/17 15:31:08;;;;;;;25.80;14.32;;;;;;;1.16;77.91;100929.59;4970329;28;20034;-73
2021/01/17 15:33:33;;;;;;;25.40;14.45;;;;;;;1.06;79.41;100934.47;4975963;28;20055;-73
2021/01/17 15:36:07;;;;;;;25.30;14.32;;;;;;;1.12;77.27;100947.16;4970937;28;20118;-73
2021/01/17 15:38:37;;;;;;;27.00;15.10;;;;;;;1.13;77.35;100941.03;4969641;28;20074;-73
2021/01/17 15:41:03;;;;;;;23.20;13.32;;;;;;;1.11;77.43;100947.25;4970877;28;20030;-73
2021/01/17 15:43:28;;;;;;;25.73;15.27;;;;;;;1.04;79.08;100938.91;4970806;28;20100;-73
2021/01/17 15:45:53;;;;;;;27.17;15.45;;;;;;;1.06;78.08;100947.47;4978886;28;20089;-73
2021/01/17 15:48:19;;;;;;;25.27;14.63;;;;;;;1.04;78.01;100952.75;4973681;28;20035;-73
2021/01/17 15:50:44;;;;;;;14.88;8.88;;;;;;;0.98;79.49;100968.72;4973479;28;20476;-73
2021/01/17 15:53:09;;;;;;;24.60;13.38;;;;;;;1.00;79.24;100966.88;4974261;28;20034;-73
2021/01/17 15:55:35;;;;;;;30.45;17.27;;;;;;;1.06;77.90;100970.91;4973342;28;20369;-73
2021/01/17 15:58:00;;;;;;;32.40;17.33;;;;;;;1.03;78.15;100974.53;4973472;28;20399;-73
2021/01/17 16:00:25;;;;;;;28.15;15.30;;;;;;;1.08;78.21;100978.66;4974072;28;20463;-73
2021/01/17 16:02:50;;;;;;;21.52;12.95;;;;;;;1.03;79.47;100981.50;4974420;28;20027;-73
2021/01/17 16:05:16;;;;;;;29.48;15.05;;;;;;;1.00;78.91;100977.31;4974309;28;20472;-73
2021/01/17 16:07:46;;;;;;;28.65;15.43;;;;;;;0.97;80.45;100982.63;4982709;28;20365;-73
2021/01/17 16:10:12;;;;;;;23.30;12.73;;;;;;;0.92;79.91;100979.44;4974108;28;20077;-73
2021/01/17 16:12:38;;;;;;;27.65;15.95;;;;;;;1.00;79.59;100982.50;4974333;28;20042;-73
2021/01/17 16:15:05;;;;;;;18.40;10.13;;;;;;;0.95;80.40;100981.03;4969631;28;20038;-73
2021/01/17 16:17:30;;;;;;;30.65;15.25;;;;;;;1.02;79.00;100985.00;4974234;28;20025;-73
2021/01/17 16:19:55;;;;;;;21.88;12.70;;;;;;;0.99;80.91;100993.81;4974203;28;20487;-71
2021/01/17 16:22:20;;;;;;;23.83;13.30;;;;;;;1.03;79.22;101000.56;4978967;28;20068;-73
2021/01/17 16:24:46;;;;;;;22.75;13.75;;;;;;;1.05;79.05;100996.13;4973922;28;20035;-73
2021/01/17 16:27:11;;;;;;;15.95;9.35;;;;;;;0.99;81.61;100999.03;4973844;28;20027;-73
2021/01/17 16:29:36;;;;;;;17.83;10.07;;;;;;;0.98;80.94;100997.38;4974225;28;20428;-73
2021/01/17 16:32:02;;;;;;;18.80;11.38;;;;;;;0.99;80.61;101000.81;4973077;28;20038;-73
2021/01/17 16:34:28;;;;;;;15.48;9.02;;;;;;;0.99;80.69;101003.41;4978180;28;20019;-73
2021/01/17 16:37:01;;;;;;;19.08;11.52;;;;;;;1.05;79.20;101008.31;4973643;28;20022;-73
2021/01/17 16:39:27;;;;;;;20.27;11.57;;;;;;;1.05;79.12;101003.09;4974153;28;20467;-73
2021/01/17 16:42:00;;;;;;;13.68;7.65;;;;;;;1.03;79.86;101007.53;4973403;28;20110;-73
2021/01/17 16:44:27;;;;;;;25.25;15.07;;;;;;;1.10;78.69;101002.84;4976168;28;20034;-73
2021/01/17 16:46:53;;;;;;;16.20;9.48;;;;;;;1.01;81.51;101014.59;4979733;28;20025;-73
2021/01/17 16:49:18;;;;;;;14.63;9.43;;;;;;;0.99;82.17;101016.44;4975252;28;20026;-73
2021/01/17 16:51:44;;;;;;;12.27;7.63;;;;;;;0.95;82.98;101013.13;4973425;28;20042;-73
2021/01/17 16:54:10;;;;;;;10.20;5.90;;;;;;;0.96;82.69;101024.41;4973718;28;20030;-73
2021/01/17 16:56:35;;;;;;;12.23;7.50;;;;;;;0.92;82.77;101017.66;4979997;28;20498;-73
2021/01/17 16:59:02;;;;;;;17.15;10.20;;;;;;;0.89;81.56;101030.84;4973873;28;20053;-73
2021/01/17 17:01:40;;;;;;;9.00;6.50;;;;;;;0.89;83.25;101030.84;4980847;28;20042;-72
2021/01/17 17:04:07;;;;;;;13.45;8.57;;;;;;;0.84;83.80;101038.88;4972888;28;20081;-73
2021/01/17 17:06:33;;;;;;;14.45;8.27;;;;;;;0.81;83.77;101045.09;4971732;28;20042;-73
2021/01/17 17:08:59;;;;;;;10.90;5.95;;;;;;;0.82;82.68;101056.34;4973168;28;20046;-73
2021/01/17 17:11:25;;;;;;;12.52;7.65;;;;;;;0.78;83.83;101055.63;4978837;28;20042;-73
2021/01/17 17:13:51;;;;;;;10.65;6.78;;;;;;;0.81;81.80;101055.50;4978823;28;20029;-73
2021/01/17 17:16:18;;;;;;;9.95;6.00;;;;;;;0.89;82.55;101059.47;4974427;28;20034;-73
2021/01/17 17:18:43;;;;;;;25.58;14.80;;;;;;;0.98;79.69;101059.03;4973015;28;20113;-73
2021/01/17 17:21:09;;;;;;;19.10;11.68;;;;;;;0.97;80.39;101065.97;4972923;28;20046;-73
2021/01/17 17:23:34;;;;;;;13.80;7.97;;;;;;;0.98;80.39;101062.47;4972230;28;20023;-73
2021/01/17 17:26:00;;;;;;;12.98;7.20;;;;;;;0.98;80.52;101067.66;4972757;28;20053;-73
2021/01/17 17:28:25;;;;;;;20.92;12.02;;;;;;;1.02;80.69;101069.19;4972540;28;20043;-73
2021/01/17 17:30:50;;;;;;;11.95;7.35;;;;;;;0.98;82.18;101072.88;4971473;28;20041;-73
2021/01/17 17:33:17;;;;;;;18.40;11.45;;;;;;;0.90;84.38;101074.16;4977588;28;20105;-73
2021/01/17 17:35:43;;;;;;;12.73;7.13;;;;;;;0.92;82.49;101078.38;4973317;28;20034;-73
2021/01/17 17:38:08;;;;;;;16.75;9.98;;;;;;;0.88;84.75;101082.03;4972724;28;20039;-73
2021/01/17 17:40:33;;;;;;;21.23;10.55;;;;;;;0.88;82.24;101074.22;4972663;28;20468;-73
2021/01/17 17:42:59;;;;;;;26.35;15.52;;;;;;;1.00;81.39;101078.00;4972464;28;20066;-73
2021/01/17 17:45:24;;;;;;;23.23;13.38;;;;;;;1.05;81.12;101082.06;4972506;28;20097;-73
2021/01/17 17:47:49;;;;;;;32.28;17.27;;;;;;;1.11;81.23;101078.31;4975257;28;20102;-73
2021/01/17 17:50:15;;;;;;;20.55;10.80;;;;;;;0.98;83.89;101072.88;4972437;28;20046;-73
2021/01/17 17:52:40;;;;;;;19.48;11.75;;;;;;;0.91;85.58;101081.06;4972016;28;20029;-73
2021/01/17 17:55:07;;;;;;;14.70;8.93;;;;;;;0.88;85.33;101081.22;4972312;28;20033;-73
2021/01/17 17:57:32;;;;;;;15.05;9.48;;;;;;;0.95;84.71;101083.44;4971848;28;20427;-73
2021/01/17 17:59:59;;;;;;;19.38;10.85;;;;;;;0.91;86.07;101086.28;4972446;28;20026;-73
2021/01/17 18:02:24;;;;;;;18.50;10.30;;;;;;;0.85;86.00;101077.00;4971228;28;20030;-73
2021/01/17 18:04:50;;;;;;;11.27;7.43;;;;;;;0.90;86.35;101089.78;4971871;28;20037;-73
2021/01/17 18:07:15;;;;;;;13.98;8.25;;;;;;;0.94;85.71;101096.53;4971317;28;20034;-73
2021/01/17 18:09:40;;;;;;;21.50;12.23;;;;;;;1.03;82.49;101091.72;4975164;28;20549;-73
2021/01/17 18:12:06;;;;;;;21.67;12.75;;;;;;;1.10;84.27;101094.00;4974764;28;20023;-73
2021/01/17 18:14:33;;;;;;;16.00;9.75;;;;;;;1.00;86.28;101102.28;4972106;28;20025;-73
2021/01/17 18:16:58;;;;;;;18.23;10.73;;;;;;;1.08;82.93;101111.47;4972043;28;20034;-73
2021/01/17 18:19:24;;;;;;;23.13;12.60;;;;;;;1.12;83.15;101103.44;4972240;28;20243;-73
2021/01/17 18:21:49;;;;;;;17.02;9.60;;;;;;;1.13;83.43;101102.50;4971836;28;20027;-73
2021/01/17 18:24:14;;;;;;;19.25;10.57;;;;;;;1.11;85.70;101108.72;4971753;28;20503;-73
2021/01/17 18:26:40;;;;;;;10.15;6.25;;;;;;;1.14;84.16;101108.56;4972578;28;20084;-73
2021/01/17 18:29:05;;;;;;;10.10;5.88;;;;;;;1.17;84.96;101108.41;4972866;28;20377;-73
2021/01/17 18:31:31;;;;;;;13.95;8.60;;;;;;;1.10;86.61;101113.09;4977765;28;20030;-72
2021/01/17 18:33:56;;;;;;;16.95;9.77;;;;;;;1.04;86.88;101113.38;4975496;28;20357;-73
2021/01/17 18:36:22;;;;;;;14.57;9.23;;;;;;;1.04;86.01;101116.00;4972242;28;20087;-73
2021/01/17 18:38:47;;;;;;;9.43;5.45;;;;;;;1.06;83.53;101112.38;4972660;28;20429;-73
2021/01/17 18:41:12;;;;;;;6.63;4.30;;;;;;;1.09;83.98;101118.38;4970879;28;20510;-73
2021/01/17 18:43:38;;;;;;;4.75;2.85;;;;;;;1.15;83.13;101120.69;4972336;28;20162;-73
2021/01/17 18:46:03;;;;;;;6.85;4.57;;;;;;;1.14;85.59;101121.59;4974388;28;20118;-73
2021/01/17 18:48:29;;;;;;;6.05;3.88;;;;;;;1.14;84.24;101124.19;4975066;28;20026;-73
2021/01/17 18:50:54;;;;;;;6.45;3.45;;;;;;;1.15;83.72;101128.50;4977585;28;20026;-73
2021/01/17 18:53:19;;;;;;;8.48;5.07;;;;;;;1.14;85.61;101126.78;4970323;28;20031;-73
2021/01/17 18:55:44;;;;;;;6.95;4.25;;;;;;;1.18;83.48;101125.72;4976750;28;20121;-73
2021/01/17 18:58:10;;;;;;;7.03;4.68;;;;;;;1.22;84.10;101122.91;4971558;28;20026;-73
2021/01/17 19:00:35;;;;;;;11.70;6.60;;;;;;;1.27;82.45;101120.91;4969033;28;20117;-73
2021/01/17 19:03:00;;;;;;;17.88;10.45;;;;;;;1.34;82.12;101121.44;4966584;28;20469;-73
2021/01/17 19:05:26;;;;;;;14.05;9.18;;;;;;;1.34;84.43;101124.03;4973741;28;20026;-73
2021/01/17 19:07:52;;;;;;;10.75;6.63;;;;;;;1.32;83.75;101127.66;4978006;28;20057;-73
2021/01/17 19:10:18;;;;;;;8.32;4.70;;;;;;;1.33;83.27;101126.72;4973783;28;20175;-74
2021/01/17 19:12:43;;;;;;;10.15;6.30;;;;;;;1.26;86.50;101127.03;4976882;28;20484;-73
2021/01/17 19:15:09;;;;;;;9.88;5.28;;;;;;;1.24;85.25;101133.22;4976896;28;20129;-73
2021/01/17 19:17:35;;;;;;;11.77;8.00;;;;;;;1.15;87.07;101131.09;4971708;28;20487;-73
2021/01/17 19:20:00;;;;;;;15.15;8.35;;;;;;;1.04;87.73;101137.66;4979053;28;20079;-73
2021/01/17 19:22:29;;;;;;;11.15;6.97;;;;;;;1.04;86.92;101140.25;4978270;28;20468;-73
2021/01/17 19:24:54;;;;;;;9.55;5.57;;;;;;;1.14;84.16;101139.81;4985836;28;20030;-73
2021/01/17 19:27:20;;;;;;;17.92;10.85;;;;;;;1.25;85.43;101130.53;4976118;28;20041;-73
2021/01/17 19:29:46;;;;;;;19.80;11.77;;;;;;;1.34;84.14;101134.47;4975213;28;20026;-73
2021/01/17 19:32:12;;;;;;;20.95;11.80;;;;;;;1.39;84.38;101129.03;4976957;28;20041;-73
2021/01/17 19:34:37;;;;;;;18.00;10.48;;;;;;;1.24;88.40;101135.81;4974448;28;20034;-74
2021/01/17 19:37:04;;;;;;;19.85;11.82;;;;;;;1.12;88.82;101141.66;4981339;28;20411;-73
2021/01/17 19:39:29;;;;;;;9.77;6.30;;;;;;;1.15;86.92;101141.50;4970301;28;20494;-74
2021/01/17 19:41:55;;;;;;;17.08;10.65;;;;;;;1.18;86.39;101144.78;4981832;28;20338;-73
2021/01/17 19:44:21;;;;;;;20.85;11.98;;;;;;;1.29;85.12;101133.84;4984686;28;20032;-73
2021/01/17 19:46:47;;;;;;;21.48;12.43;;;;;;;1.34;85.04;101139.66;4985729;28;20113;-73
2021/01/17 19:49:14;;;;;;;20.40;11.98;;;;;;;1.41;84.87;101140.22;4977660;28;20455;-73
2021/01/17 19:51:48;;;;;;;17.95;11.63;;;;;;;1.46;84.90;101140.81;4984823;28;20031;-73
2021/01/17 19:54:14;;;;;;;22.08;13.70;;;;;;;1.46;84.97;101146.88;4980955;28;20112;-73
2021/01/17 19:56:40;;;;;;;16.55;10.50;;;;;;;1.39;86.80;101145.50;4982689;28;20034;-73
2021/01/17 19:59:06;;;;;;;19.27;11.35;;;;;;;1.41;86.11;101148.88;4978880;28;20058;-73
2021/01/17 20:01:32;;;;;;;22.13;12.63;;;;;;;1.48;85.45;101144.19;4973462;28;20042;-73
2021/01/17 20:03:58;;;;;;;25.20;14.25;;;;;;;1.58;84.58;101149.78;4983551;28;20022;-73
2021/01/17 20:06:24;;;;;;;23.52;13.25;;;;;;;1.55;85.50;101157.72;4984170;28;20038;-74
2021/01/17 20:08:50;;;;;;;29.50;15.60;;;;;;;1.56;85.62;101160.25;4976670;28;20064;-72
2021/01/17 20:11:17;;;;;;;16.83;11.20;;;;;;;1.54;85.68;101159.50;4980828;28;20415;-72
2021/01/17 20:13:45;;;;;;;25.40;15.63;;;;;;;1.60;85.26;101164.41;4979924;28;20026;-72
2021/01/17 20:16:11;;;;;;;32.25;18.05;;;;;;;1.68;84.93;101158.78;4975298;28;20365;-72
2021/01/17 20:18:37;;;;;;;31.45;17.13;;;;;;;1.69;84.77;101155.25;4977365;28;20035;-72
2021/01/17 20:21:03;;;;;;;22.55;13.55;;;;;;;1.64;85.17;101154.66;4982663;28;20026;-72
2021/01/17 20:23:28;;;;;;;28.17;17.42;;;;;;;1.66;84.85;101164.06;4973381;28;20134;-72
2021/01/17 20:25:53;;;;;;;33.75;19.25;;;;;;;1.70;85.24;101165.63;4976372;28;20038;-72
2021/01/17 20:28:18;;;;;;;29.13;16.77;;;;;;;1.69;85.35;101168.28;4974239;28;20030;-72
2021/01/17 20:30:44;;;;;;;31.75;18.20;;;;;;;1.71;85.28;101158.63;4977071;28;20042;-72
2021/01/17 20:33:09;;;;;;;27.58;16.35;;;;;;;1.68;85.37;101166.63;4976253;28;20027;-72
2021/01/17 20:35:34;;;;;;;25.35;15.30;;;;;;;1.64;85.81;101162.47;4972696;28;20031;-72
2021/01/17 20:38:00;;;;;;;31.23;17.98;;;;;;;1.71;85.85;101166.44;4975760;28;20082;-73
2021/01/17 20:40:26;;;;;;;26.65;15.18;;;;;;;1.69;85.99;101176.09;4979620;28;20480;-74
2021/01/17 20:42:51;;;;;;;26.92;16.70;;;;;;;1.69;85.72;101170.91;4984763;28;20037;-72
2021/01/17 20:45:18;;;;;;;28.27;15.90;;;;;;;1.66;85.81;101177.09;4972336;28;20097;-72
2021/01/17 20:47:44;;;;;;;29.65;15.27;;;;;;;1.67;85.86;101178.81;4987775;28;20037;-72
2021/01/17 20:50:09;;;;;;;31.90;19.40;;;;;;;1.78;85.61;101173.03;4975865;28;20399;-74
2021/01/17 20:52:38;;;;;;;27.85;16.02;;;;;;;1.75;85.87;101182.78;4971725;28;20050;-72
2021/01/17 20:55:05;;;;;;;21.75;13.30;;;;;;;1.67;87.30;101175.38;4972443;28;20061;-71
2021/01/17 20:57:31;;;;;;;41.70;20.10;;;;;;;1.79;85.98;101179.09;4972630;28;20027;-72
2021/01/17 20:59:56;;;;;;;31.67;17.73;;;;;;;1.79;86.38;101169.53;4974027;28;20077;-73
2021/01/17 21:02:21;;;;;;;25.42;15.45;;;;;;;1.73;86.95;101179.41;4971528;28;20508;-72
2021/01/17 21:04:47;;;;;;;27.08;16.38;;;;;;;1.80;85.98;101186.00;4974895;28;20478;-72
2021/01/17 21:07:14;;;;;;;32.78;17.83;;;;;;;1.84;86.14;101185.75;4974071;28;20025;-72
2021/01/17 21:09:40;;;;;;;29.35;17.25;;;;;;;1.81;86.31;101185.06;4974187;28;20062;-74
2021/01/17 21:12:05;;;;;;;31.60;17.08;;;;;;;1.81;86.44;101193.75;4973942;28;20042;-72
2021/01/17 21:14:30;;;;;;;30.70;17.95;;;;;;;1.83;86.43;101194.50;4971539;28;20027;-72
2021/01/17 21:16:56;;;;;;;33.72;17.45;;;;;;;1.84;86.16;101196.19;4978587;28;20049;-71
2021/01/17 21:19:21;;;;;;;25.20;14.30;;;;;;;1.85;86.66;101192.66;4972199;28;20376;-72
2021/01/17 21:21:46;;;;;;;28.42;16.42;;;;;;;1.90;86.08;101192.41;4977070;28;20030;-72
2021/01/17 21:24:12;;;;;;;28.45;15.93;;;;;;;1.88;86.21;101192.53;4975719;28;20435;-72
2021/01/17 21:26:37;;;;;;;21.10;12.63;;;;;;;1.84;87.17;101187.53;4975989;28;20094;-73
2021/01/17 21:29:02;;;;;;;20.30;11.63;;;;;;;1.83;87.07;101193.66;4980908;28;20030;-72
2021/01/17 21:31:28;;;;;;;24.27;13.60;;;;;;;1.86;86.54;101194.34;4973528;28;20046;-72
2021/01/17 21:33:53;;;;;;;16.20;9.63;;;;;;;1.81;87.76;101191.16;4970355;28;20322;-72
2021/01/17 21:36:18;;;;;;;18.15;10.77;;;;;;;1.78;87.82;101195.66;4969365;28;20484;-74
2021/01/17 21:38:49;;;;;;;18.67;11.55;;;;;;;1.68;88.31;101201.34;4969683;28;20547;-74
2021/01/17 21:41:14;;;;;;;19.38;11.60;;;;;;;1.69;88.26;101199.56;4971701;28;20033;-74
2021/01/17 21:43:40;;;;;;;16.23;9.25;;;;;;;1.70;87.52;101203.88;4970085;28;20031;-74
2021/01/17 21:46:05;;;;;;;26.00;15.20;;;;;;;1.80;86.83;101205.09;4967456;28;20031;-74
2021/01/17 21:48:31;;;;;;;26.48;16.88;;;;;;;1.90;86.03;101208.91;4970471;28;20033;-74
2021/01/17 21:50:56;;;;;;;29.65;16.88;;;;;;;1.96;85.85;101212.13;4968573;28;20023;-73
2021/01/17 21:53:21;;;;;;;32.97;17.40;;;;;;;1.97;85.89;101208.59;4970223;28;20027;-73
2021/01/17 21:55:47;;;;;;;30.05;16.75;;;;;;;1.99;85.91;101215.41;4970502;28;20038;-74
2021/01/17 21:58:12;;;;;;;26.60;16.80;;;;;;;1.99;85.73;101212.81;4971453;28;20530;-73
2021/01/17 22:00:37;;;;;;;33.55;17.40;;;;;;;1.99;85.70;101212.81;4970187;28;20449;-74
2021/01/17 22:03:03;;;;;;;27.50;13.43;;;;;;;1.95;86.14;101221.72;4977792;28;20549;-74
2021/01/17 22:05:28;;;;;;;27.55;15.95;;;;;;;1.96;86.08;101225.19;4971150;28;20055;-74
2021/01/17 22:07:54;;;;;;;18.00;10.15;;;;;;;1.85;87.12;101231.78;4979977;28;20041;-74
2021/01/17 22:10:20;;;;;;;31.48;16.15;;;;;;;1.94;86.29;101240.06;4972114;28;20031;-73
2021/01/17 22:12:46;;;;;;;28.35;15.90;;;;;;;1.95;85.87;101236.53;4971764;28;20384;-73
2021/01/17 22:15:13;;;;;;;26.95;14.02;;;;;;;1.99;85.80;101235.44;4970442;28;20435;-74
2021/01/17 22:17:40;;;;;;;26.88;14.77;;;;;;;1.98;85.85;101241.56;4977857;28;20381;-74